Time,TemperatureF,DewpointF,PressureIn,WindDirection,WindDirectionDegrees,WindSpeedMPH,WindSpeedGustMPH,Humidity,HourlyPrecipIn,Conditions,Clouds,dailyrainin,SoftwareType,DateUTC
2013-09-26 00:00:00,57.0,49.0,-100.00,East,91,4.0,-999.0,75,0.00,,,-99.99,,2013-09-26 07:00:00,
2013-09-26 00:42:00,57.0,49.0,-100.00,East,91,4.0,-999.0,75,0.00,,,-99.99,,2013-09-26 07:42:00,
2013-09-26 00:53:00,57.0,49.0,-100.00,East,91,4.0,-999.0,75,0.00,,,-99.99,,2013-09-26 07:53:00,
2013-09-26 01:00:00,54.0,48.0,-100.00,SW,234,1.0,-999.0,79,0.00,,,-99.99,,2013-09-26 08:00:00,
2013-09-26 01:42:00,54.0,48.0,-100.00,SW,234,1.0,-999.0,79,0.00,,,-99.99,,2013-09-26 08:42:00,
2013-09-26 01:52:00,54.0,48.0,-100.00,SW,234,1.0,-999.0,79,0.00,,,-99.99,,2013-09-26 08:52:00,
2013-09-26 02:00:00,54.0,49.0,-100.00,ESE,108,2.0,-999.0,82,0.00,,,-99.99,,2013-09-26 09:00:00,
2013-09-26 02:43:00,54.0,49.0,-100.00,ESE,108,2.0,-999.0,82,0.00,,,-99.99,,2013-09-26 09:43:00,
2013-09-26 02:53:00,54.0,49.0,-100.00,ESE,108,2.0,-999.0,82,0.00,,,-99.99,,2013-09-26 09:53:00,
2013-09-26 03:00:00,54.0,49.0,-100.00,NE,52,1.0,-999.0,81,0.00,,,-99.99,,2013-09-26 10:00:00,
2013-09-26 03:42:00,54.0,49.0,-100.00,NE,52,1.0,-999.0,81,0.00,,,-99.99,,2013-09-26 10:42:00,
2013-09-26 03:53:00,54.0,49.0,-100.00,NE,52,1.0,-999.0,81,0.00,,,-99.99,,2013-09-26 10:53:00,
2013-09-26 04:00:00,55.0,49.0,-100.00,NNE,13,2.0,-999.0,80,0.00,,,-99.99,,2013-09-26 11:00:00,
2013-09-26 04:42:00,55.0,49.0,-100.00,NNE,13,2.0,-999.0,80,0.00,,,-99.99,,2013-09-26 11:42:00,
2013-09-26 04:52:00,55.0,49.0,-100.00,NNE,13,2.0,-999.0,80,0.00,,,-99.99,,2013-09-26 11:52:00,
2013-09-26 05:00:00,54.0,50.0,-100.00,ENE,60,2.0,-999.0,83,0.00,,,-99.99,,2013-09-26 12:00:00,
2013-09-26 05:42:00,54.0,50.0,-100.00,ENE,60,2.0,-999.0,83,0.00,,,-99.99,,2013-09-26 12:42:00,
2013-09-26 05:52:00,54.0,50.0,-100.00,ENE,60,2.0,-999.0,83,0.00,,,-99.99,,2013-09-26 12:52:00,
2013-09-26 06:00:00,54.0,49.0,-100.00,NNE,27,1.0,-999.0,82,0.00,,,-99.99,,2013-09-26 13:00:00,
2013-09-26 06:42:00,54.0,49.0,-100.00,NNE,27,1.0,-999.0,82,0.00,,,-99.99,,2013-09-26 13:42:00,
2013-09-26 06:52:00,54.0,49.0,-100.00,NNE,27,1.0,-999.0,82,0.00,,,-99.99,,2013-09-26 13:52:00,
2013-09-26 07:00:00,54.0,50.0,-100.00,ENE,62,1.0,-999.0,84,0.00,,,-99.99,,2013-09-26 14:00:00,
2013-09-26 07:42:00,54.0,50.0,-100.00,ENE,62,1.0,-999.0,84,0.00,,,-99.99,,2013-09-26 14:42:00,
2013-09-26 07:52:00,54.0,50.0,-100.00,ENE,62,1.0,-999.0,84,0.00,,,-99.99,,2013-09-26 14:52:00,
2013-09-26 08:00:00,56.0,50.0,-100.00,SE,133,0.0,-999.0,81,0.00,,,-99.99,,2013-09-26 15:00:00,
2013-09-26 08:44:00,56.0,50.0,-100.00,SE,133,0.0,-999.0,81,0.00,,,-99.99,,2013-09-26 15:44:00,
2013-09-26 08:54:00,56.0,50.0,-100.00,SE,133,0.0,-999.0,81,0.00,,,-99.99,,2013-09-26 15:54:00,
2013-09-26 09:00:00,59.0,52.0,-100.00,East,92,2.0,-999.0,75,0.00,,,-99.99,,2013-09-26 16:00:00,
2013-09-26 09:43:00,59.0,52.0,-100.00,East,92,2.0,-999.0,75,0.00,,,-99.99,,2013-09-26 16:43:00,
2013-09-26 09:53:00,59.0,52.0,-100.00,East,92,2.0,-999.0,75,0.00,,,-99.99,,2013-09-26 16:53:00,
2013-09-26 10:00:00,68.0,52.0,-100.00,West,281,2.0,-999.0,56,0.00,,,-99.99,,2013-09-26 17:00:00,
2013-09-26 10:43:00,68.0,52.0,-100.00,West,281,2.0,-999.0,56,0.00,,,-99.99,,2013-09-26 17:43:00,
2013-09-26 10:52:00,68.0,52.0,-100.00,West,281,2.0,-999.0,56,0.00,,,-99.99,,2013-09-26 17:52:00,
2013-09-26 11:00:00,70.0,53.0,-100.00,SSW,200,2.0,-999.0,54,0.00,,,-99.99,,2013-09-26 18:00:00,
2013-09-26 11:42:00,70.0,53.0,-100.00,SSW,200,2.0,-999.0,54,0.00,,,-99.99,,2013-09-26 18:42:00,
2013-09-26 11:52:00,70.0,53.0,-100.00,SSW,200,2.0,-999.0,54,0.00,,,-99.99,,2013-09-26 18:52:00,
2013-09-26 12:00:00,72.0,49.0,-100.00,WSW,245,8.0,-999.0,45,0.00,,,-99.99,,2013-09-26 19:00:00,
2013-09-26 12:44:00,72.0,49.0,-100.00,WSW,245,8.0,-999.0,45,0.00,,,-99.99,,2013-09-26 19:44:00,
2013-09-26 12:52:00,72.0,49.0,-100.00,WSW,245,8.0,-999.0,45,0.00,,,-99.99,,2013-09-26 19:52:00,
2013-09-26 13:00:00,73.0,46.0,-100.00,SW,216,10.0,-999.0,38,0.00,,,-99.99,,2013-09-26 20:00:00,
2013-09-26 13:43:00,73.0,46.0,-100.00,SW,216,10.0,-999.0,38,0.00,,,-99.99,,2013-09-26 20:43:00,
2013-09-26 13:52:00,73.0,46.0,-100.00,SW,216,10.0,-999.0,38,0.00,,,-99.99,,2013-09-26 20:52:00,
2013-09-26 14:00:00,74.0,40.0,-100.00,NW,325,2.0,-999.0,29,0.00,,,-99.99,,2013-09-26 21:00:00,
2013-09-26 14:44:00,74.0,40.0,-100.00,NW,325,2.0,-999.0,29,0.00,,,-99.99,,2013-09-26 21:44:00,
2013-09-26 14:54:00,74.0,40.0,-100.00,NW,325,2.0,-999.0,29,0.00,,,-99.99,,2013-09-26 21:54:00,
2013-09-26 15:00:00,73.0,45.0,-100.00,WSW,248,5.0,-999.0,37,0.00,,,-99.99,,2013-09-26 22:00:00,
2013-09-26 15:43:00,73.0,45.0,-100.00,WSW,248,5.0,-999.0,37,0.00,,,-99.99,,2013-09-26 22:43:00,
2013-09-26 15:54:00,73.0,45.0,-100.00,WSW,248,5.0,-999.0,37,0.00,,,-99.99,,2013-09-26 22:54:00,
2013-09-26 16:00:00,74.0,43.0,-100.00,SW,218,5.0,-999.0,32,0.00,,,-99.99,,2013-09-26 23:00:00,
2013-09-26 16:42:00,74.0,43.0,-100.00,SW,218,5.0,-999.0,32,0.00,,,-99.99,,2013-09-26 23:42:00,
2013-09-26 16:53:00,74.0,43.0,-100.00,SW,218,5.0,-999.0,32,0.00,,,-99.99,,2013-09-26 23:53:00,
2013-09-26 17:00:00,72.0,45.0,-100.00,SW,228,6.0,-999.0,37,0.00,,,-99.99,,2013-09-27 00:00:00,
2013-09-26 17:43:00,72.0,45.0,-100.00,SW,228,6.0,-999.0,37,0.00,,,-99.99,,2013-09-27 00:43:00,
2013-09-26 17:52:00,72.0,45.0,-100.00,SW,228,6.0,-999.0,37,0.00,,,-99.99,,2013-09-27 00:52:00,
2013-09-26 18:00:00,70.0,51.0,-100.00,SSW,205,6.0,-999.0,49,0.00,,,-99.99,,2013-09-27 01:00:00,
2013-09-26 18:42:00,70.0,51.0,-100.00,SSW,205,6.0,-999.0,49,0.00,,,-99.99,,2013-09-27 01:42:00,
2013-09-26 18:52:00,70.0,51.0,-100.00,SSW,205,6.0,-999.0,49,0.00,,,-99.99,,2013-09-27 01:52:00,
2013-09-26 19:00:00,65.0,51.0,-100.00,South,178,3.0,-999.0,59,0.00,,,-99.99,,2013-09-27 02:00:00,
2013-09-26 19:43:00,65.0,51.0,-100.00,South,178,3.0,-999.0,59,0.00,,,-99.99,,2013-09-27 02:43:00,
2013-09-26 19:53:00,65.0,51.0,-100.00,South,178,3.0,-999.0,59,0.00,,,-99.99,,2013-09-27 02:53:00,
2013-09-26 20:00:00,61.0,51.0,-100.00,East,101,4.0,-999.0,68,0.00,,,-99.99,,2013-09-27 03:00:00,
2013-09-26 20:45:00,61.0,51.0,-100.00,East,101,4.0,-999.0,68,0.00,,,-99.99,,2013-09-27 03:45:00,
2013-09-26 20:55:00,61.0,51.0,-100.00,East,101,4.0,-999.0,68,0.00,,,-99.99,,2013-09-27 03:55:00,
2013-09-26 21:00:00,59.0,49.0,-100.00,West,259,1.0,-999.0,69,0.00,,,-99.99,,2013-09-27 04:00:00,
2013-09-26 21:44:00,59.0,49.0,-100.00,West,259,1.0,-999.0,69,0.00,,,-99.99,,2013-09-27 04:44:00,
2013-09-26 21:54:00,59.0,49.0,-100.00,West,259,1.0,-999.0,69,0.00,,,-99.99,,2013-09-27 04:54:00,
2013-09-26 22:00:00,56.0,48.0,-100.00,NE,52,1.0,-999.0,75,0.00,,,-99.99,,2013-09-27 05:00:00,
2013-09-26 22:43:00,56.0,48.0,-100.00,NE,52,1.0,-999.0,75,0.00,,,-99.99,,2013-09-27 05:43:00,
2013-09-26 22:52:00,56.0,48.0,-100.00,NE,52,1.0,-999.0,75,0.00,,,-99.99,,2013-09-27 05:52:00,
2013-09-26 23:00:00,54.0,47.0,-100.00,NE,52,2.0,-999.0,76,0.00,,,-99.99,,2013-09-27 06:00:00,
2013-09-26 23:43:00,54.0,47.0,-100.00,NE,52,2.0,-999.0,76,0.00,,,-99.99,,2013-09-27 06:43:00,
2013-09-26 23:52:00,54.0,47.0,-100.00,NE,52,2.0,-999.0,76,0.00,,,-99.99,,2013-09-27 06:52:00,